createdAt,value
2022-12-09T00:00:23.534Z,22.95
2022-12-09T00:03:26.534Z,23.77
2022-12-09T00:06:30.403Z,22.17
2022-12-09T00:09:33.328Z,21.70
2022-12-09T00:12:36.138Z,22.27
2022-12-09T00:15:42.596Z,21.60
2022-12-09T00:18:45.484Z,22.90
2022-12-09T00:21:48.783Z,23.65
2022-12-09T00:24:51.885Z,24.47
2022-12-09T00:27:54.774Z,25.33
2022-12-09T00:31:01.060Z,24.63
2022-12-09T00:34:07.322Z,27.07
2022-12-09T00:37:09.752Z,25.00
2022-12-09T00:40:13.078Z,24.23
2022-12-09T00:43:15.564Z,23.23
2022-12-09T00:46:18.897Z,21.85
2022-12-09T00:49:22.219Z,22.33
2022-12-09T00:52:24.919Z,22.23
2022-12-09T00:55:27.707Z,23.13
2022-12-09T00:58:31.000Z,20.77
2022-12-09T01:01:33.656Z,21.33
2022-12-09T01:04:36.798Z,21.37
2022-12-09T01:07:39.668Z,21.83
2022-12-09T01:10:44.786Z,20.70
2022-12-09T01:13:48.993Z,22.88
2022-12-09T01:16:51.998Z,22.58
2022-12-09T01:19:54.659Z,23.50
2022-12-09T01:22:57.693Z,24.45
2022-12-09T01:26:04.177Z,22.80
2022-12-09T01:29:07.407Z,23.05
2022-12-09T01:32:10.703Z,23.95
2022-12-09T01:35:15.705Z,24.10
2022-12-09T01:38:18.589Z,23.00
2022-12-09T01:41:22.780Z,23.17
2022-12-09T01:44:26.803Z,23.25
2022-12-09T01:47:29.798Z,21.95
2022-12-09T01:50:36.110Z,22.73
2022-12-09T01:53:43.928Z,23.42
2022-12-09T01:56:47.808Z,20.57
2022-12-09T01:59:53.302Z,22.08
2022-12-09T02:02:57.528Z,21.58
2022-12-09T02:06:00.911Z,23.13
2022-12-09T02:09:03.973Z,22.15
2022-12-09T02:12:18.162Z,22.17
2022-12-09T02:15:39.499Z,23.80
2022-12-09T02:18:59.776Z,24.75
2022-12-09T02:22:02.925Z,24.90
2022-12-09T02:25:30.853Z,26.55
2022-12-09T02:29:11.391Z,22.57
2022-12-09T02:32:28.064Z,24.15
2022-12-09T02:35:48.636Z,22.75
2022-12-09T02:38:53.161Z,24.30
2022-12-09T02:41:58.386Z,23.83
2022-12-09T02:45:04.542Z,23.30
2022-12-09T02:48:09.695Z,23.85
2022-12-09T02:51:20.114Z,23.13
2022-12-09T02:54:24.756Z,24.27
2022-12-09T02:57:31.299Z,25.35
2022-12-09T03:00:34.343Z,24.00
2022-12-09T03:03:38.151Z,26.15
2022-12-09T03:06:53.218Z,23.30
2022-12-09T03:10:09.743Z,23.77
2022-12-09T03:13:34.517Z,22.15
2022-12-09T03:16:50.282Z,24.83
2022-12-09T03:20:06.699Z,24.05
2022-12-09T03:23:12.658Z,22.60
2022-12-09T03:26:17.918Z,24.73
2022-12-09T03:29:25.785Z,24.20
2022-12-09T03:32:31.788Z,26.70
2022-12-09T03:35:40.285Z,26.27
2022-12-09T03:38:45.681Z,26.23
2022-12-09T03:41:54.281Z,25.03
2022-12-09T03:45:04.983Z,25.40
2022-12-09T03:48:09.683Z,24.52
2022-12-09T03:51:38.326Z,24.38
2022-12-09T03:54:54.097Z,21.33
2022-12-09T03:58:00.229Z,23.67
2022-12-09T04:01:04.103Z,23.90
2022-12-09T04:04:08.382Z,23.10
2022-12-09T04:07:11.151Z,23.77
2022-12-09T04:10:17.029Z,28.48
2022-12-09T04:13:20.010Z,27.57
2022-12-09T04:16:23.136Z,25.83
2022-12-09T04:19:27.013Z,26.30
2022-12-09T04:22:30.665Z,27.30
2022-12-09T04:25:39.250Z,25.50
2022-12-09T04:28:41.991Z,28.30
2022-12-09T04:31:45.458Z,31.55
2022-12-09T04:34:49.413Z,30.10
2022-12-09T04:37:52.321Z,32.08
2022-12-09T04:40:54.871Z,32.05
2022-12-09T04:43:57.767Z,29.53
2022-12-09T04:47:01.270Z,31.42
2022-12-09T04:50:06.389Z,28.38
2022-12-09T04:53:09.751Z,25.70
2022-12-09T04:56:19.388Z,27.15
2022-12-09T04:59:22.480Z,22.42
2022-12-09T05:02:26.065Z,25.77
2022-12-09T05:05:29.249Z,26.77
2022-12-09T05:08:33.339Z,23.98
2022-12-09T05:11:36.226Z,27.48
2022-12-09T05:14:38.980Z,26.20
2022-12-09T05:17:41.680Z,27.10
2022-12-09T05:20:45.004Z,27.17
2022-12-09T05:23:48.558Z,25.63
2022-12-09T05:26:53.050Z,28.10
2022-12-09T05:29:56.043Z,26.35
2022-12-09T05:32:59.156Z,24.95
2022-12-09T05:36:02.136Z,23.60
2022-12-09T05:39:06.006Z,25.38
2022-12-09T05:42:08.813Z,22.60
2022-12-09T05:45:12.526Z,23.27
2022-12-09T05:48:15.671Z,21.17
2022-12-09T05:51:23.861Z,22.27
2022-12-09T05:54:26.755Z,23.40
2022-12-09T05:57:30.545Z,26.73
2022-12-09T06:00:33.567Z,21.02
2022-12-09T06:03:37.120Z,27.05
2022-12-09T06:06:40.706Z,27.70
2022-12-09T06:09:45.148Z,28.48
2022-12-09T06:12:47.831Z,26.33
2022-12-09T06:15:51.303Z,20.37
2022-12-09T06:18:54.533Z,27.00
2022-12-09T06:21:57.832Z,27.83
2022-12-09T06:25:00.279Z,26.05
2022-12-09T06:28:04.693Z,25.00
2022-12-09T06:31:07.415Z,26.33
2022-12-09T06:34:11.153Z,22.73
2022-12-09T06:37:16.562Z,20.67
2022-12-09T06:40:22.216Z,15.07
2022-12-09T06:43:25.937Z,16.98
2022-12-09T06:46:29.450Z,22.93
2022-12-09T06:49:32.987Z,23.88
2022-12-09T06:52:37.658Z,25.10
2022-12-09T06:55:40.418Z,24.63
2022-12-09T06:58:45.163Z,23.27
2022-12-09T07:01:47.941Z,29.38
2022-12-09T07:04:55.759Z,24.27
2022-12-09T07:07:59.094Z,25.97
2022-12-09T07:11:02.795Z,24.73
2022-12-09T07:14:06.217Z,24.25
2022-12-09T07:17:17.998Z,20.57
2022-12-09T07:20:21.548Z,23.30
2022-12-09T07:23:24.839Z,20.13
2022-12-09T07:26:30.235Z,23.27
2022-12-09T07:29:34.237Z,20.60
2022-12-09T07:32:37.137Z,21.75
2022-12-09T07:35:40.801Z,21.15
2022-12-09T07:38:43.944Z,27.53
2022-12-09T07:41:52.613Z,21.20
2022-12-09T07:44:55.234Z,23.50
2022-12-09T07:47:58.342Z,18.03
2022-12-09T07:51:05.557Z,22.35
2022-12-09T07:54:15.239Z,21.88
2022-12-09T07:57:18.346Z,22.42
2022-12-09T08:00:22.029Z,16.83
2022-12-09T08:03:25.447Z,19.42
2022-12-09T08:06:30.368Z,16.52
2022-12-09T08:09:33.832Z,14.07
2022-12-09T08:12:36.953Z,25.38
2022-12-09T08:15:40.073Z,27.65
2022-12-09T08:18:43.836Z,27.70
2022-12-09T08:21:52.807Z,22.58
2022-12-09T08:24:57.294Z,15.65
2022-12-09T08:28:00.424Z,22.35
2022-12-09T08:31:09.142Z,17.35
2022-12-09T08:34:13.186Z,22.73
2022-12-09T08:37:16.400Z,19.20
2022-12-09T08:40:19.761Z,29.43
2022-12-09T08:43:22.709Z,28.33
2022-12-09T08:46:25.840Z,29.95
2022-12-09T08:49:29.896Z,25.40
2022-12-09T08:52:38.700Z,29.45
2022-12-09T08:55:43.681Z,29.27
2022-12-09T08:58:48.714Z,22.13
2022-12-09T09:01:52.781Z,26.92
2022-12-09T09:04:57.575Z,19.13
2022-12-09T09:08:01.015Z,22.63
2022-12-09T09:11:10.606Z,24.57
2022-12-09T09:14:14.968Z,25.48
2022-12-09T09:17:17.596Z,25.30
2022-12-09T09:20:20.915Z,31.00
2022-12-09T09:23:23.560Z,29.38
2022-12-09T09:26:31.087Z,28.10
2022-12-09T09:29:34.917Z,31.02
2022-12-09T09:32:38.110Z,24.75
2022-12-09T09:35:40.963Z,24.23
2022-12-09T09:38:44.085Z,24.45
2022-12-09T09:42:07.817Z,22.27
2022-12-09T09:45:16.529Z,21.48
2022-12-09T09:48:24.517Z,22.52
2022-12-09T09:51:28.655Z,21.20
2022-12-09T09:54:32.352Z,26.45
2022-12-09T09:57:38.486Z,22.98
2022-12-09T10:00:52.517Z,22.13
2022-12-09T10:04:10.100Z,24.25
2022-12-09T10:07:25.548Z,24.75
2022-12-09T10:11:07.269Z,21.85
2022-12-09T10:14:10.117Z,26.30
2022-12-09T10:17:32.173Z,26.33
2022-12-09T10:20:35.084Z,28.13
2022-12-09T10:23:37.932Z,25.87
2022-12-09T10:26:41.273Z,25.20
2022-12-09T10:29:55.062Z,24.17
2022-12-09T10:32:57.876Z,25.48
2022-12-09T10:36:00.945Z,23.08
2022-12-09T10:39:05.290Z,24.05
2022-12-09T10:42:34.634Z,22.40
2022-12-09T10:49:20.899Z,23.55
2022-12-09T10:52:31.784Z,27.90
2022-12-09T10:55:40.516Z,29.30
2022-12-09T10:58:43.427Z,30.63
2022-12-09T11:02:01.845Z,27.17
2022-12-09T11:05:34.011Z,26.83
2022-12-09T11:08:40.755Z,22.65
2022-12-09T11:11:45.699Z,24.05
2022-12-09T11:14:52.554Z,22.35
2022-12-09T11:18:27.516Z,24.67
2022-12-09T11:21:34.457Z,23.85
2022-12-09T11:24:37.835Z,23.15
2022-12-09T11:27:48.120Z,25.50
2022-12-09T11:34:27.617Z,26.77
2022-12-09T11:37:32.335Z,22.90
2022-12-09T11:40:35.908Z,23.85
2022-12-09T11:43:56.558Z,23.20
2022-12-09T11:47:12.920Z,27.02
2022-12-09T11:50:20.401Z,25.70
2022-12-09T11:53:26.367Z,21.95
2022-12-09T11:56:29.748Z,23.55
2022-12-09T11:59:40.472Z,27.50
2022-12-09T12:03:04.653Z,21.85
2022-12-09T12:06:16.768Z,20.67
2022-12-09T12:09:25.189Z,19.52
2022-12-09T12:12:30.841Z,22.58
2022-12-09T12:15:55.458Z,21.63
2022-12-09T12:19:40.666Z,29.02
2022-12-09T12:23:14.331Z,20.93
2022-12-09T12:26:23.869Z,22.13
2022-12-09T12:29:34.467Z,20.08
2022-12-09T12:33:59.939Z,19.70
2022-12-09T12:36:46.023Z,17.75
2022-12-09T12:40:07.524Z,20.65
2022-12-09T12:43:41.249Z,20.85
2022-12-09T12:47:05.957Z,22.33
2022-12-09T12:50:14.639Z,24.40
2022-12-09T12:53:46.374Z,26.02
2022-12-09T12:57:08.030Z,30.33
2022-12-09T13:00:22.180Z,30.55
2022-12-09T13:03:29.772Z,28.48
2022-12-09T13:06:47.282Z,28.30
2022-12-09T13:09:56.384Z,28.83
2022-12-09T13:13:02.048Z,23.42
2022-12-09T13:16:21.037Z,20.90
2022-12-09T13:19:48.935Z,18.92
2022-12-09T13:23:07.613Z,19.70
2022-12-09T13:26:29.261Z,18.73
2022-12-09T13:29:42.449Z,17.93
2022-12-09T13:33:05.538Z,16.88
2022-12-09T13:36:35.931Z,19.27
2022-12-09T13:39:42.165Z,17.13
2022-12-09T13:42:54.026Z,19.08
2022-12-09T13:46:02.052Z,17.40
2022-12-09T13:49:18.680Z,18.20
2022-12-09T13:52:41.150Z,18.95
2022-12-09T13:56:04.911Z,17.05
2022-12-09T13:59:29.130Z,17.02
2022-12-09T14:02:37.706Z,17.43
2022-12-09T14:05:40.424Z,16.85
2022-12-09T14:08:50.462Z,18.80
2022-12-09T14:12:06.492Z,19.47
2022-12-09T14:15:24.374Z,19.40
2022-12-09T14:18:33.582Z,20.58
2022-12-09T14:21:36.291Z,24.92
2022-12-09T14:24:39.143Z,28.02
2022-12-09T14:28:10.859Z,28.90
2022-12-09T14:31:45.429Z,28.35
2022-12-09T14:34:59.407Z,49.07
2022-12-09T14:38:14.468Z,38.78
2022-12-09T14:41:33.823Z,36.60
2022-12-09T14:44:56.844Z,32.33
2022-12-09T14:48:00.839Z,36.45
2022-12-09T14:51:26.661Z,34.25
2022-12-09T14:54:35.416Z,39.92
2022-12-09T14:57:43.882Z,28.70
2022-12-09T15:00:46.662Z,30.98
2022-12-09T15:04:00.257Z,39.22
2022-12-09T15:07:25.683Z,33.70
2022-12-09T15:10:34.436Z,30.10
2022-12-09T15:13:40.934Z,28.45
2022-12-09T15:16:47.715Z,33.47
2022-12-09T15:20:12.159Z,33.30
2022-12-09T15:23:26.897Z,36.30
2022-12-09T15:26:34.110Z,41.00
2022-12-09T15:29:36.969Z,38.50
2022-12-09T15:32:40.078Z,39.67
2022-12-09T15:35:49.536Z,35.45
2022-12-09T15:38:59.107Z,44.20
2022-12-09T15:42:12.506Z,43.38
2022-12-09T15:45:23.312Z,41.58
2022-12-09T15:48:32.192Z,41.50
2022-12-09T15:51:38.980Z,39.28
2022-12-09T15:54:44.149Z,39.33
2022-12-09T15:57:49.974Z,42.47
2022-12-09T16:00:54.442Z,41.08
2022-12-09T16:04:00.583Z,44.15
2022-12-09T16:07:07.627Z,51.20
2022-12-09T16:10:17.395Z,62.63
2022-12-09T16:13:21.362Z,64.93
2022-12-09T16:16:30.224Z,55.63
2022-12-09T16:19:38.359Z,63.37
2022-12-09T16:22:41.950Z,64.05
2022-12-09T16:25:48.070Z,58.60
2022-12-09T16:29:02.934Z,51.75
2022-12-09T16:32:25.641Z,52.35
2022-12-09T16:35:37.701Z,48.58
2022-12-09T16:38:41.613Z,48.63
2022-12-09T16:41:50.779Z,51.70
2022-12-09T16:44:53.491Z,53.35
2022-12-09T16:47:57.870Z,49.67
2022-12-09T16:51:12.590Z,47.43
2022-12-09T16:54:20.458Z,47.80
2022-12-09T16:57:24.243Z,44.58
2022-12-09T17:00:27.844Z,48.42
2022-12-09T17:03:42.916Z,48.72
2022-12-09T17:06:46.075Z,47.33
2022-12-09T17:09:48.977Z,45.20
2022-12-09T17:12:52.028Z,42.20
2022-12-09T17:15:58.477Z,43.92
2022-12-09T17:19:01.959Z,41.22
2022-12-09T17:22:04.564Z,43.03
2022-12-09T17:25:10.422Z,42.25
2022-12-09T17:28:13.587Z,49.20
2022-12-09T17:31:18.771Z,48.92
2022-12-09T17:34:21.580Z,50.22
2022-12-09T17:37:24.498Z,52.25
2022-12-09T17:40:27.700Z,60.30
2022-12-09T17:43:30.891Z,64.23
2022-12-09T17:46:34.849Z,57.15
2022-12-09T17:49:38.046Z,51.00
2022-12-09T17:52:42.485Z,53.60
2022-12-09T17:55:46.095Z,54.60
2022-12-09T17:58:56.308Z,59.08
2022-12-09T18:01:59.001Z,57.20
2022-12-09T18:05:01.824Z,56.92
2022-12-09T18:08:05.826Z,54.08
2022-12-09T18:11:10.710Z,53.03
2022-12-09T18:14:14.048Z,51.77
2022-12-09T18:17:16.721Z,49.05
2022-12-09T18:20:19.647Z,50.72
2022-12-09T18:23:22.189Z,51.50
2022-12-09T18:26:30.211Z,51.92
2022-12-09T18:29:35.237Z,63.05
2022-12-09T18:32:38.314Z,82.13
2022-12-09T18:35:41.503Z,68.70
2022-12-09T18:38:45.207Z,55.88
2022-12-09T18:41:51.717Z,52.03
2022-12-09T18:44:55.758Z,44.37
2022-12-09T18:47:58.227Z,43.70
2022-12-09T18:51:01.641Z,39.60
2022-12-09T18:54:05.435Z,43.13
2022-12-09T18:57:08.454Z,42.45
2022-12-09T19:00:13.217Z,45.13
2022-12-09T19:03:15.976Z,46.17
2022-12-09T19:06:25.593Z,50.95
2022-12-09T19:09:33.847Z,52.08
2022-12-09T19:12:47.166Z,50.60
2022-12-09T19:15:51.281Z,52.17
2022-12-09T19:18:54.784Z,55.97
2022-12-09T19:21:57.849Z,54.00
2022-12-09T19:25:00.617Z,55.73
2022-12-09T19:28:04.185Z,52.08
2022-12-09T19:31:20.282Z,45.08
2022-12-09T19:34:27.303Z,45.88
2022-12-09T19:37:30.211Z,43.00
2022-12-09T19:40:33.007Z,48.28
2022-12-09T19:43:36.292Z,47.45
2022-12-09T19:46:39.448Z,54.53
2022-12-09T19:49:44.397Z,50.40
2022-12-09T19:52:48.083Z,49.88
2022-12-09T19:55:51.157Z,51.43
2022-12-09T19:58:54.673Z,49.28
2022-12-09T20:01:57.830Z,46.47
2022-12-09T20:05:00.924Z,43.03
2022-12-09T20:08:03.899Z,34.95
2022-12-09T20:11:13.704Z,44.55
2022-12-09T20:14:16.827Z,40.58
2022-12-09T20:17:19.838Z,39.50
2022-12-09T20:20:22.662Z,39.40
2022-12-09T20:23:25.603Z,37.72
2022-12-09T20:26:31.263Z,40.23
2022-12-09T20:29:37.978Z,40.28
2022-12-09T20:32:43.857Z,40.10
2022-12-09T20:35:46.955Z,39.80
2022-12-09T20:38:55.167Z,38.17
2022-12-09T20:41:59.798Z,37.42
2022-12-09T20:45:02.852Z,38.70
2022-12-09T20:48:06.352Z,39.00
2022-12-09T20:51:13.201Z,45.33
2022-12-09T20:54:16.473Z,44.75
2022-12-09T20:57:19.179Z,47.80
2022-12-09T21:00:22.177Z,47.45
2022-12-09T21:03:26.001Z,47.03
2022-12-09T21:06:32.082Z,50.42
2022-12-09T21:09:35.171Z,53.30
2022-12-09T21:12:38.151Z,59.53
2022-12-09T21:15:41.108Z,55.47
2022-12-09T21:18:44.346Z,55.13
2022-12-09T21:21:47.121Z,54.38
2022-12-09T21:24:49.863Z,54.58
2022-12-09T21:27:52.658Z,51.80
2022-12-09T21:30:55.838Z,57.30
2022-12-09T21:34:01.936Z,52.88
2022-12-09T21:37:04.779Z,46.17
2022-12-09T21:40:08.135Z,49.25
2022-12-09T21:43:11.365Z,49.28
2022-12-09T21:46:19.812Z,54.47
2022-12-09T21:49:23.061Z,50.67
2022-12-09T21:52:25.518Z,57.15
2022-12-09T21:55:28.752Z,51.40
2022-12-09T21:58:32.734Z,53.93
2022-12-09T22:01:41.788Z,55.00
2022-12-09T22:04:44.611Z,50.97
2022-12-09T22:07:50.286Z,53.72
2022-12-09T22:10:53.767Z,52.33
2022-12-09T22:13:58.989Z,49.80
2022-12-09T22:17:01.886Z,48.13
2022-12-09T22:20:48.830Z,45.77
2022-12-09T22:23:30.483Z,43.95
2022-12-09T22:26:33.591Z,56.25
2022-12-09T22:29:36.133Z,48.03
2022-12-09T22:32:42.043Z,50.40
2022-12-09T22:35:46.059Z,44.83
2022-12-09T22:38:49.544Z,42.75
2022-12-09T22:41:52.493Z,36.25
2022-12-09T22:44:55.423Z,33.90
2022-12-09T22:47:58.072Z,27.23
2022-12-09T22:51:16.231Z,24.50
2022-12-09T22:54:18.791Z,23.60
2022-12-09T22:57:21.691Z,22.77
2022-12-09T23:00:24.517Z,22.60
2022-12-09T23:03:27.630Z,22.35
2022-12-09T23:06:31.387Z,22.95
2022-12-09T23:09:34.049Z,20.45
2022-12-09T23:12:36.577Z,18.15
2022-12-09T23:15:39.598Z,17.27
2022-12-09T23:18:42.791Z,20.48
2022-12-09T23:21:45.900Z,16.83
2022-12-09T23:24:48.804Z,22.17
2022-12-09T23:27:51.880Z,27.58
2022-12-09T23:30:54.446Z,20.70
2022-12-09T23:33:58.346Z,25.42
2022-12-09T23:37:01.163Z,22.35
2022-12-09T23:40:04.773Z,25.42
2022-12-09T23:43:07.801Z,26.88
2022-12-09T23:46:16.004Z,29.00
2022-12-09T23:49:19.339Z,24.73
2022-12-09T23:52:22.243Z,21.30
2022-12-09T23:55:24.632Z,49.42
2022-12-09T23:58:27.456Z,44.38
